createdAt,value
2023-03-27T00:02:23.758Z,5.40
2023-03-27T00:04:50.715Z,5.24
2023-03-27T00:07:17.555Z,5.42
2023-03-27T00:09:46.512Z,5.49
2023-03-27T00:12:13.406Z,5.46
2023-03-27T00:14:40.367Z,5.48
2023-03-27T00:17:07.198Z,5.50
2023-03-27T00:19:34.156Z,5.41
2023-03-27T00:22:01.375Z,5.56
2023-03-27T00:24:28.529Z,5.49
2023-03-27T00:26:55.397Z,5.42
2023-03-27T00:29:22.274Z,5.45
2023-03-27T00:31:49.171Z,5.43
2023-03-27T00:34:16.188Z,5.45
2023-03-27T00:36:43.918Z,5.50
2023-03-27T00:39:11.482Z,5.30
2023-03-27T00:41:38.374Z,5.40
2023-03-27T00:44:24.110Z,5.25
2023-03-27T00:46:52.550Z,5.29
2023-03-27T00:49:19.462Z,5.36
2023-03-27T00:51:48.270Z,5.35
2023-03-27T00:54:22.158Z,5.49
2023-03-27T00:56:50.095Z,5.35
2023-03-27T00:59:20.289Z,5.28
2023-03-27T01:01:48.018Z,5.29
2023-03-27T01:04:14.977Z,5.17
2023-03-27T01:06:42.511Z,5.21
2023-03-27T01:09:09.738Z,5.39
2023-03-27T01:12:02.834Z,5.49
2023-03-27T01:14:44.691Z,5.27
2023-03-27T01:17:32.653Z,5.31
2023-03-27T01:20:26.222Z,5.15
2023-03-27T01:23:16.952Z,5.20
2023-03-27T01:26:37.738Z,5.11
2023-03-27T01:29:22.934Z,5.03
2023-03-27T01:32:53.315Z,5.03
2023-03-27T01:35:53.035Z,4.99
2023-03-27T01:38:57.002Z,5.12
2023-03-27T01:41:41.338Z,4.93
2023-03-27T01:44:22.548Z,5.18
2023-03-27T01:47:00.892Z,5.05
2023-03-27T01:49:43.631Z,5.13
2023-03-27T01:52:19.198Z,5.05
2023-03-27T01:54:55.976Z,5.14
2023-03-27T01:57:28.833Z,5.15
2023-03-27T02:00:18.671Z,4.99
2023-03-27T02:03:23.138Z,5.05
2023-03-27T02:06:01.768Z,5.03
2023-03-27T02:08:41.497Z,5.08
2023-03-27T02:11:08.683Z,4.88
2023-03-27T02:13:42.443Z,4.97
2023-03-27T02:16:17.078Z,4.87
2023-03-27T02:19:18.765Z,4.72
2023-03-27T02:21:48.399Z,4.83
2023-03-27T02:24:18.990Z,4.56
2023-03-27T02:26:49.775Z,4.35
2023-03-27T02:29:47.161Z,4.51
2023-03-27T02:32:34.893Z,4.43
2023-03-27T02:35:13.026Z,4.52
2023-03-27T02:38:13.752Z,4.47
2023-03-27T02:41:11.107Z,4.62
2023-03-27T02:44:13.324Z,4.50
2023-03-27T02:46:49.410Z,4.62
2023-03-27T02:49:28.959Z,4.45
2023-03-27T02:52:02.708Z,4.42
2023-03-27T02:54:36.858Z,4.40
2023-03-27T02:57:11.928Z,4.11
2023-03-27T02:59:45.661Z,4.17
2023-03-27T03:05:25.246Z,4.16
2023-03-27T03:08:14.799Z,3.96
2023-03-27T03:10:46.196Z,4.12
2023-03-27T03:13:13.158Z,4.01
2023-03-27T03:16:20.988Z,3.89
2023-03-27T03:18:47.921Z,3.79
2023-03-27T03:21:15.518Z,3.94
2023-03-27T03:23:42.521Z,3.86
2023-03-27T03:26:25.218Z,3.90
2023-03-27T03:29:00.627Z,3.95
2023-03-27T03:31:44.509Z,3.90
2023-03-27T03:34:18.774Z,3.78
2023-03-27T03:36:50.124Z,3.38
2023-03-27T03:39:18.506Z,3.39
2023-03-27T03:41:45.496Z,3.43
2023-03-27T03:44:12.388Z,3.22
2023-03-27T03:46:39.675Z,3.26
2023-03-27T03:49:07.054Z,3.36
2023-03-27T03:51:35.934Z,3.33
2023-03-27T03:54:05.608Z,3.39
2023-03-27T03:56:34.705Z,3.44
2023-03-27T03:59:01.725Z,3.33
2023-03-27T04:01:29.025Z,3.14
2023-03-27T04:03:56.565Z,3.12
2023-03-27T04:06:25.819Z,3.05
2023-03-27T04:08:53.291Z,2.93
2023-03-27T04:11:21.315Z,3.01
2023-03-27T04:13:48.317Z,2.91
2023-03-27T04:16:15.793Z,2.67
2023-03-27T04:18:42.961Z,2.72
2023-03-27T04:21:18.090Z,2.72
2023-03-27T04:23:48.446Z,2.68
2023-03-27T04:26:16.351Z,2.73
2023-03-27T04:28:43.309Z,2.86
2023-03-27T04:31:11.063Z,2.75
2023-03-27T04:33:40.154Z,2.73
2023-03-27T04:36:08.756Z,2.77
2023-03-27T04:38:39.466Z,2.84
2023-03-27T04:41:07.572Z,2.87
2023-03-27T04:43:37.034Z,2.67
2023-03-27T04:46:08.142Z,2.57
2023-03-27T04:48:39.357Z,2.49
2023-03-27T04:51:07.303Z,2.59
2023-03-27T04:53:36.508Z,2.70
2023-03-27T04:56:04.681Z,2.42
2023-03-27T04:58:31.661Z,2.43
2023-03-27T05:00:58.681Z,2.21
2023-03-27T05:03:26.384Z,2.07
2023-03-27T05:05:53.972Z,1.89
2023-03-27T05:08:20.877Z,1.84
2023-03-27T05:10:47.727Z,1.68
2023-03-27T05:13:14.659Z,1.67
2023-03-27T05:15:42.037Z,1.80
2023-03-27T05:18:09.458Z,1.68
2023-03-27T05:20:37.094Z,1.49
2023-03-27T05:23:04.263Z,1.53
2023-03-27T05:25:32.921Z,1.54
2023-03-27T05:28:00.894Z,1.40
2023-03-27T05:30:29.224Z,1.50
2023-03-27T05:32:59.569Z,1.41
2023-03-27T05:35:28.779Z,1.38
2023-03-27T05:37:57.450Z,1.19
2023-03-27T05:40:27.030Z,1.27
2023-03-27T05:42:56.011Z,1.27
2023-03-27T05:45:24.317Z,1.34
2023-03-27T05:47:58.242Z,1.27
2023-03-27T05:50:35.549Z,1.39
2023-03-27T05:53:10.376Z,1.29
2023-03-27T05:55:38.922Z,1.39
2023-03-27T05:58:10.432Z,1.37
2023-03-27T06:00:38.841Z,1.52
2023-03-27T06:03:07.191Z,1.39
2023-03-27T06:05:34.745Z,1.51
2023-03-27T06:08:02.819Z,1.39
2023-03-27T06:10:31.119Z,1.53
2023-03-27T06:13:04.101Z,1.48
2023-03-27T06:15:33.192Z,1.46
2023-03-27T06:18:00.128Z,1.30
2023-03-27T06:20:27.856Z,1.28
2023-03-27T06:23:03.113Z,1.50
2023-03-27T06:25:34.795Z,1.69
2023-03-27T06:28:04.823Z,1.65
2023-03-27T06:30:31.811Z,1.57
2023-03-27T06:33:00.617Z,1.29
2023-03-27T06:35:32.022Z,1.46
2023-03-27T06:38:00.226Z,1.49
2023-03-27T06:40:29.317Z,1.27
2023-03-27T06:43:10.496Z,1.47
2023-03-27T06:45:47.138Z,1.41
2023-03-27T06:48:21.210Z,1.30
2023-03-27T06:50:51.753Z,1.23
2023-03-27T06:55:50.437Z,1.41
2023-03-27T06:58:19.416Z,1.25
2023-03-27T07:00:49.089Z,1.14
2023-03-27T07:03:16.809Z,1.25
2023-03-27T07:05:46.002Z,0.98
2023-03-27T07:10:50.620Z,1.20
2023-03-27T07:13:23.637Z,1.19
2023-03-27T07:15:50.522Z,0.78
2023-03-27T07:18:17.677Z,0.90
2023-03-27T07:20:45.408Z,0.76
2023-03-27T07:23:12.253Z,0.69
2023-03-27T07:25:39.597Z,0.69
2023-03-27T07:28:14.157Z,0.76
2023-03-27T07:30:41.684Z,0.55
2023-03-27T07:33:12.896Z,0.60
2023-03-27T07:35:47.611Z,0.63
2023-03-27T07:38:16.273Z,0.61
2023-03-27T07:40:46.813Z,0.59
2023-03-27T07:43:14.411Z,0.77
2023-03-27T07:45:41.793Z,0.72
2023-03-27T07:48:16.412Z,0.99
2023-03-27T07:50:43.761Z,1.15
2023-03-27T07:53:33.844Z,1.01
2023-03-27T07:56:00.596Z,0.99
2023-03-27T07:58:27.808Z,1.00
2023-03-27T08:00:55.035Z,0.92
2023-03-27T08:03:22.303Z,1.14
2023-03-27T08:05:58.727Z,1.28
2023-03-27T08:08:27.368Z,1.40
2023-03-27T08:10:57.228Z,1.44
2023-03-27T08:13:24.474Z,1.35
2023-03-27T08:15:51.524Z,1.35
2023-03-27T08:18:18.664Z,1.42
2023-03-27T08:20:45.870Z,1.49
2023-03-27T08:23:12.784Z,1.41
2023-03-27T08:25:40.138Z,1.46
2023-03-27T08:28:07.440Z,1.64
2023-03-27T08:30:35.501Z,1.68
2023-03-27T08:33:02.619Z,1.52
2023-03-27T08:35:29.572Z,1.47
2023-03-27T08:37:56.484Z,1.35
2023-03-27T08:40:28.486Z,1.53
2023-03-27T08:43:02.616Z,1.46
2023-03-27T08:45:46.325Z,1.42
2023-03-27T08:48:22.235Z,1.47
2023-03-27T08:51:26.417Z,1.39
2023-03-27T08:54:17.487Z,1.41
2023-03-27T08:56:45.467Z,1.44
2023-03-27T08:59:17.235Z,1.62
2023-03-27T09:01:50.302Z,1.76
2023-03-27T09:04:25.077Z,1.87
2023-03-27T09:07:19.756Z,1.99
2023-03-27T09:10:15.545Z,1.96
2023-03-27T09:12:46.099Z,1.83
2023-03-27T09:15:17.665Z,2.09
2023-03-27T09:17:53.642Z,2.21
2023-03-27T09:20:35.595Z,2.14
2023-03-27T09:23:22.344Z,2.24
2023-03-27T09:26:41.564Z,2.14
2023-03-27T09:29:26.958Z,2.08
2023-03-27T09:31:56.632Z,2.27
2023-03-27T09:34:34.401Z,2.46
2023-03-27T09:37:01.727Z,2.62
2023-03-27T09:39:32.916Z,2.44
2023-03-27T09:42:11.205Z,2.55
2023-03-27T09:44:42.652Z,2.75
2023-03-27T09:47:18.253Z,2.85
2023-03-27T09:49:50.829Z,3.07
2023-03-27T09:52:39.869Z,2.96
2023-03-27T09:55:27.094Z,3.07
2023-03-27T09:58:00.823Z,3.11
2023-03-27T10:00:34.322Z,2.94
2023-03-27T10:03:06.016Z,3.16
2023-03-27T10:05:33.347Z,3.34
2023-03-27T10:08:03.819Z,3.41
2023-03-27T10:10:32.842Z,3.14
2023-03-27T10:13:01.296Z,3.21
2023-03-27T10:15:35.050Z,3.27
2023-03-27T10:18:09.041Z,3.33
2023-03-27T10:20:36.079Z,3.27
2023-03-27T10:23:08.870Z,3.28
2023-03-27T10:25:42.350Z,3.47
2023-03-27T10:28:15.649Z,3.55
2023-03-27T10:30:42.455Z,3.57
2023-03-27T10:33:09.508Z,3.70
2023-03-27T10:35:43.893Z,3.78
2023-03-27T10:38:15.181Z,3.98
2023-03-27T10:40:50.900Z,3.91
2023-03-27T10:43:32.930Z,3.92
2023-03-27T10:46:05.209Z,3.86
2023-03-27T10:49:17.471Z,4.08
2023-03-27T10:51:52.854Z,3.82
2023-03-27T10:54:38.016Z,3.70
2023-03-27T10:57:14.190Z,3.74
2023-03-27T10:59:50.880Z,3.91
2023-03-27T11:02:40.032Z,4.05
2023-03-27T11:05:21.042Z,4.09
2023-03-27T11:07:57.082Z,4.12
2023-03-27T11:10:31.142Z,4.31
2023-03-27T11:13:04.751Z,4.47
2023-03-27T11:15:42.503Z,4.67
2023-03-27T11:18:19.051Z,5.14
2023-03-27T11:20:56.914Z,5.46
2023-03-27T11:23:42.888Z,5.32
2023-03-27T11:26:15.851Z,5.23
2023-03-27T11:28:53.194Z,4.93
2023-03-27T11:31:38.677Z,4.60
2023-03-27T11:34:29.381Z,4.92
2023-03-27T11:37:14.827Z,4.78
2023-03-27T11:40:30.374Z,5.00
2023-03-27T11:42:57.622Z,5.17
2023-03-27T11:45:28.086Z,5.02
2023-03-27T11:48:16.514Z,5.36
2023-03-27T11:50:53.355Z,5.56
2023-03-27T11:53:45.462Z,5.46
2023-03-27T11:56:29.305Z,5.74
2023-03-27T11:59:27.734Z,5.72
2023-03-27T12:02:02.366Z,5.69
2023-03-27T12:04:58.841Z,5.35
2023-03-27T12:08:25.483Z,5.33
2023-03-27T12:10:54.967Z,5.35
2023-03-27T12:14:01.158Z,5.34
2023-03-27T12:17:02.311Z,5.41
2023-03-27T12:19:54.166Z,5.75
2023-03-27T12:22:35.989Z,5.73
2023-03-27T12:25:23.938Z,5.72
2023-03-27T12:28:01.578Z,6.03
2023-03-27T12:30:59.050Z,6.15
2023-03-27T12:34:05.008Z,6.60
2023-03-27T12:36:37.972Z,6.68
2023-03-27T12:39:26.274Z,6.72
2023-03-27T12:41:53.762Z,7.03
2023-03-27T12:44:30.396Z,6.92
2023-03-27T12:47:25.053Z,6.45
2023-03-27T12:50:00.906Z,6.86
2023-03-27T12:52:28.767Z,7.31
2023-03-27T12:55:36.301Z,7.87
2023-03-27T12:58:05.514Z,8.20
2023-03-27T13:00:32.846Z,8.40
2023-03-27T13:03:56.256Z,8.19
2023-03-27T13:07:03.204Z,7.91
2023-03-27T13:09:38.947Z,7.62
2023-03-27T13:13:02.843Z,7.48
2023-03-27T13:16:06.811Z,7.89
2023-03-27T13:19:08.422Z,7.44
2023-03-27T13:22:11.259Z,7.19
2023-03-27T13:25:06.026Z,7.14
2023-03-27T13:28:20.290Z,7.14
2023-03-27T13:30:51.636Z,7.24
2023-03-27T13:33:29.717Z,7.36
2023-03-27T13:36:00.807Z,7.58
2023-03-27T13:39:08.550Z,7.43
2023-03-27T13:41:48.043Z,7.44
2023-03-27T13:45:01.089Z,7.04
2023-03-27T13:47:50.368Z,6.93
2023-03-27T13:50:37.268Z,6.90
2023-03-27T13:53:30.570Z,6.92
2023-03-27T13:56:32.574Z,6.90
2023-03-27T13:59:30.192Z,6.80
2023-03-27T14:02:07.112Z,7.07
2023-03-27T14:04:55.455Z,7.36
2023-03-27T14:08:26.796Z,7.68
2023-03-27T14:11:23.857Z,7.65
2023-03-27T14:14:31.243Z,7.85
2023-03-27T14:17:26.919Z,7.55
2023-03-27T14:20:06.729Z,7.49
2023-03-27T14:23:02.205Z,7.09
2023-03-27T14:25:36.697Z,6.88
2023-03-27T14:28:10.491Z,6.68
2023-03-27T14:30:55.957Z,6.73
2023-03-27T14:33:22.903Z,6.71
2023-03-27T14:35:57.282Z,7.17
2023-03-27T14:38:31.109Z,7.40
2023-03-27T14:41:01.112Z,7.25
2023-03-27T14:43:31.920Z,7.40
2023-03-27T14:46:03.402Z,7.42
2023-03-27T14:48:37.563Z,7.45
2023-03-27T14:51:10.974Z,7.09
2023-03-27T14:53:44.793Z,6.86
2023-03-27T14:56:37.419Z,7.02
2023-03-27T14:59:11.594Z,7.18
2023-03-27T15:01:39.118Z,7.29
2023-03-27T15:04:08.005Z,7.13
2023-03-27T15:06:36.821Z,7.13
2023-03-27T15:09:05.809Z,7.22
2023-03-27T15:11:39.104Z,7.14
2023-03-27T15:14:15.662Z,6.80
2023-03-27T15:17:15.259Z,6.65
2023-03-27T15:19:53.952Z,6.50
2023-03-27T15:22:36.380Z,6.52
2023-03-27T15:25:09.282Z,6.48
2023-03-27T15:27:41.317Z,6.60
2023-03-27T15:30:18.193Z,6.74
2023-03-27T15:32:50.927Z,6.71
2023-03-27T15:35:25.642Z,6.60
2023-03-27T15:37:52.949Z,6.78
2023-03-27T15:40:35.726Z,6.70
2023-03-27T15:43:14.417Z,6.35
2023-03-27T15:46:02.807Z,6.16
2023-03-27T15:48:35.521Z,6.10
2023-03-27T15:51:26.553Z,6.27
2023-03-27T15:53:56.026Z,6.37
2023-03-27T15:56:44.977Z,6.40
2023-03-27T15:59:15.553Z,6.42
2023-03-27T16:02:03.789Z,6.23
2023-03-27T16:04:56.304Z,6.43
2023-03-27T16:07:53.903Z,6.45
2023-03-27T16:10:31.318Z,6.48
2023-03-27T16:13:06.658Z,6.54
2023-03-27T16:15:43.845Z,6.39
2023-03-27T16:18:31.749Z,6.30
2023-03-27T16:21:14.774Z,5.98
2023-03-27T16:23:42.577Z,5.80
2023-03-27T16:26:26.764Z,5.72
2023-03-27T16:28:58.444Z,5.64
2023-03-27T16:31:25.611Z,5.57
2023-03-27T16:33:52.882Z,5.43
2023-03-27T16:36:29.083Z,5.17
2023-03-27T16:38:56.193Z,5.30
2023-03-27T16:41:23.429Z,5.26
2023-03-27T16:43:50.564Z,5.27
2023-03-27T16:46:22.131Z,5.00
2023-03-27T16:48:51.324Z,4.83
2023-03-27T16:51:25.725Z,4.77
2023-03-27T16:53:53.134Z,4.85
2023-03-27T16:56:21.438Z,4.73
2023-03-27T16:58:48.989Z,4.75
2023-03-27T17:01:16.345Z,4.91
2023-03-27T17:03:43.297Z,4.80
2023-03-27T17:06:12.893Z,4.28
2023-03-27T17:08:39.833Z,4.47
2023-03-27T17:11:12.917Z,4.58
2023-03-27T17:13:43.385Z,4.58
2023-03-27T17:16:11.282Z,4.58
2023-03-27T17:18:38.220Z,4.51
2023-03-27T17:21:05.574Z,4.46
2023-03-27T17:23:32.650Z,4.42
2023-03-27T17:26:01.766Z,4.41
2023-03-27T17:28:30.019Z,4.52
2023-03-27T17:31:04.839Z,4.29
2023-03-27T17:33:32.446Z,4.16
2023-03-27T17:35:59.426Z,4.04
2023-03-27T17:38:26.665Z,3.76
2023-03-27T17:40:53.521Z,3.75
2023-03-27T17:43:20.438Z,3.54
2023-03-27T17:45:48.141Z,3.36
2023-03-27T17:48:14.997Z,3.10
2023-03-27T17:50:41.852Z,2.90
2023-03-27T17:53:08.948Z,2.95
2023-03-27T17:55:38.648Z,3.04
2023-03-27T17:58:09.933Z,2.59
2023-03-27T18:00:41.643Z,2.73
2023-03-27T18:03:09.116Z,2.81
2023-03-27T18:05:40.956Z,2.95
2023-03-27T18:10:35.542Z,2.43
2023-03-27T18:13:02.821Z,2.30
2023-03-27T18:15:31.046Z,2.48
2023-03-27T18:17:58.225Z,2.15
2023-03-27T18:20:25.397Z,2.45
2023-03-27T18:22:52.430Z,2.32
2023-03-27T18:25:19.644Z,2.52
2023-03-27T18:27:46.624Z,2.49
2023-03-27T18:30:16.269Z,2.50
2023-03-27T18:32:46.018Z,2.30
2023-03-27T18:35:21.028Z,2.61
2023-03-27T18:37:48.241Z,2.26
2023-03-27T18:40:18.620Z,2.33
2023-03-27T18:42:59.934Z,2.34
2023-03-27T18:45:27.100Z,2.42
2023-03-27T18:47:54.350Z,2.53
2023-03-27T18:50:21.568Z,2.24
2023-03-27T18:52:48.501Z,2.44
2023-03-27T18:55:20.496Z,2.41
2023-03-27T18:57:48.003Z,2.33
2023-03-27T19:00:18.632Z,2.37
2023-03-27T19:02:46.844Z,2.21
2023-03-27T19:05:16.444Z,2.13
2023-03-27T19:07:45.098Z,2.20
2023-03-27T19:10:14.243Z,2.07
2023-03-27T19:12:41.283Z,2.24
2023-03-27T19:15:19.263Z,2.40
2023-03-27T19:17:47.360Z,1.88
2023-03-27T19:20:14.380Z,2.15
2023-03-27T19:22:41.539Z,1.77
2023-03-27T19:25:12.809Z,1.85
2023-03-27T19:27:40.007Z,1.73
2023-03-27T19:30:16.268Z,1.60
2023-03-27T19:32:56.030Z,1.50
2023-03-27T19:35:23.335Z,1.89
2023-03-27T19:37:50.542Z,1.85
2023-03-27T19:40:18.924Z,1.84
2023-03-27T19:42:46.184Z,1.73
2023-03-27T19:45:13.327Z,1.68
2023-03-27T19:47:42.155Z,1.68
2023-03-27T19:50:09.850Z,1.59
2023-03-27T19:52:36.793Z,1.68
2023-03-27T19:55:04.720Z,1.65
2023-03-27T19:57:31.654Z,1.59
2023-03-27T19:59:58.742Z,1.55
2023-03-27T20:02:27.505Z,1.63
2023-03-27T20:04:54.579Z,1.61
2023-03-27T20:07:21.537Z,1.72
2023-03-27T20:09:48.475Z,1.71
2023-03-27T20:12:16.136Z,1.57
2023-03-27T20:14:46.530Z,1.46
2023-03-27T20:17:27.881Z,1.34
2023-03-27T20:19:55.984Z,1.37
2023-03-27T20:22:23.180Z,1.23
2023-03-27T20:24:50.463Z,1.25
2023-03-27T20:27:20.101Z,1.25
2023-03-27T20:30:06.934Z,1.22
2023-03-27T20:32:48.051Z,1.35
2023-03-27T20:35:23.598Z,1.62
2023-03-27T20:38:26.756Z,1.71
2023-03-27T20:40:54.667Z,1.31
2023-03-27T20:43:24.437Z,1.32
2023-03-27T20:45:53.296Z,1.59
2023-03-27T20:48:28.497Z,1.30
2023-03-27T20:50:55.719Z,1.16
2023-03-27T20:53:33.783Z,1.20
2023-03-27T20:56:21.683Z,1.19
2023-03-27T20:58:52.395Z,1.26
2023-03-27T21:01:19.983Z,1.44
2023-03-27T21:03:58.788Z,1.31
2023-03-27T21:06:26.134Z,1.53
2023-03-27T21:09:11.080Z,1.27
2023-03-27T21:11:38.063Z,1.52
2023-03-27T21:14:05.010Z,1.92
2023-03-27T21:16:38.497Z,1.73
2023-03-27T21:19:08.711Z,1.61
2023-03-27T21:21:40.959Z,1.57
2023-03-27T21:24:08.356Z,1.72
2023-03-27T21:27:48.219Z,1.79
2023-03-27T21:31:16.569Z,1.70
2023-03-27T21:33:43.657Z,1.17
2023-03-27T21:36:18.289Z,1.42
2023-03-27T21:38:45.589Z,1.29
2023-03-27T21:41:20.406Z,1.40
2023-03-27T21:44:00.490Z,1.13
2023-03-27T21:47:19.609Z,1.56
2023-03-27T21:49:59.759Z,1.10
2023-03-27T21:53:13.078Z,1.22
2023-03-27T21:56:02.597Z,1.21
2023-03-27T21:58:48.133Z,1.22
2023-03-27T22:02:12.864Z,1.62
2023-03-27T22:08:23.669Z,1.37
2023-03-27T22:11:09.352Z,1.41
2023-03-27T22:13:46.768Z,1.44
2023-03-27T22:16:17.130Z,1.70
2023-03-27T22:18:52.730Z,1.15
2023-03-27T22:21:43.632Z,1.47
2023-03-27T22:24:10.899Z,1.53
2023-03-27T22:26:40.320Z,1.75
2023-03-27T22:29:09.608Z,1.82
2023-03-27T22:31:37.026Z,1.72
2023-03-27T22:34:05.521Z,1.59
2023-03-27T22:36:33.691Z,1.76
2023-03-27T22:39:01.595Z,1.88
2023-03-27T22:41:29.845Z,1.73
2023-03-27T22:43:56.928Z,1.86
2023-03-27T22:46:24.632Z,1.89
2023-03-27T22:48:56.663Z,1.95
2023-03-27T22:51:24.930Z,1.87
2023-03-27T22:53:51.902Z,1.92
2023-03-27T22:58:59.902Z,2.07
2023-03-27T23:01:26.978Z,2.10
2023-03-27T23:03:54.137Z,2.20
2023-03-27T23:06:23.782Z,2.09
2023-03-27T23:08:51.743Z,1.92
2023-03-27T23:11:19.852Z,1.98
2023-03-27T23:13:47.704Z,2.04
2023-03-27T23:16:15.045Z,1.92
2023-03-27T23:18:42.186Z,2.02
2023-03-27T23:21:11.885Z,1.94
2023-03-27T23:23:40.740Z,2.01
2023-03-27T23:26:09.169Z,2.01
2023-03-27T23:28:39.879Z,1.92
2023-03-27T23:31:11.791Z,1.92
2023-03-27T23:33:42.042Z,1.81
2023-03-27T23:36:16.976Z,1.81
2023-03-27T23:38:43.946Z,1.78
2023-03-27T23:41:13.416Z,1.79
2023-03-27T23:43:40.495Z,1.81
2023-03-27T23:46:11.181Z,1.84
2023-03-27T23:48:40.991Z,1.83
2023-03-27T23:51:09.022Z,1.91
2023-03-27T23:53:36.562Z,1.78
2023-03-27T23:56:03.902Z,1.67
2023-03-27T23:58:34.105Z,1.66
